Kennebunkport, ME

10:21 AM EST on December 03, 2016 (GMT -0500)
Cape Arundel Golf | | Change Station

Elev 30 ft 43.37 °N, 70.48 °W | Updated 15 seconds ago

Partly Cloudy
Partly Cloudy
44.8 °F
Feels Like 45 °F
N
2.7
Wind Variable Wind from NNW
Gusts 4.9 mph

Today
High -- | Low -- °F
--% Chance of Precip.
Yesterday
High -- | Low -- °F
Precip. -- in
Pressure 29.85 in
Visibility 10.0 miles
Clouds Few 3900 ft
Windchill 45 °F
Dew Point 24 °F
Humidity 43%
Rainfall 0.00 in
Snow Depth Not available.
6:57 AM 4:06 PM
Waxing Crescent, 15% visible
METAR KSFM 031456Z AUTO 28010G16KT 10SM FEW039 06/M02 A2982 RMK AO2 SLP108 T00611022 51018 $
Pressure 29.85 in
Visibility 10.0 miles
Clouds Few 3900 ft
Windchill 45 °F
Dew Point 24 °F
Humidity 43%
Rainfall 0.00 in
Snow Depth Not available.
6:57 AM 4:06 PM
Waxing Crescent, 15% visible
METAR KSFM 031456Z AUTO 28010G16KT 10SM FEW039 06/M02 A2982 RMK AO2 SLP108 T00611022 51018 $

10-Day Weather Forecast

Almanac

Astronomy

Dec. 03, 2016 Rise Set
Actual Time
Civil Twilight
Nautical Twilight
Astronomical Twilight
Moon
Length of Visible Light
Length of Day
Tomorrow will be .
, % of the Moon is Illuminated

Today's Extremes

State Highs State Lows

Community

WunderPhotos

Upload Photos

1,955,454 photos uploaded!

WunderBlog® & News

Nearby

Air Quality

  Air Quality AQ Index Pollutant
Not available.

Snow Depth

Station Depth Elevation

Earthquake Activity

City Distance Mag. Time & Date
Minimum magnitude displayed is 2.5.

Coastal Water Temperatures

Place Temperature

Stations

Nearby Weather Stations

Station Location Temp. Windchill Dew Point Humidity Wind Precip. Elev Updated Type
                   

Watches & Warnings

There are currently no watches in effect.